Millersburg, Missouri
Current Conditions -  °F | °C
As of 4:54 PM on Tuesday 27 Jan 2015 (Local Time) from KCOU Reporting Station
Clear Clear  
Wind Chill: 44°   Ceiling: Unl
Heat Index: 47°   Visibility: 10mi
Dew Point: 33°   Wind: 6mph
Humidity: 59%   Direction: 90°E
Pressure: 30.15"   Gusts: NA
Location:  38.8555°N, 91.9568°W
Report Text: KCOU 272254Z 09005KT 10SM CLR 08/01 A3015 RMK AO2 SLP215 T00830006
Loading
Personal Weather Stations






























Interactive Weather Map New forecast layout! Learn more

10-Day Weather Forecast

Advertisements
Track Severe Weather on mobile